sensor_id;sensor_type;location;lat;lon;timestamp;temperature;humidity
13697;DHT22;6920;50.080;8.226;2023-04-10T00:00:10;6.30;99.90
13697;DHT22;6920;50.080;8.226;2023-04-10T00:02:37;6.20;99.90
13697;DHT22;6920;50.080;8.226;2023-04-10T00:05:06;6.30;99.90
13697;DHT22;6920;50.080;8.226;2023-04-10T00:07:33;6.30;99.90
13697;DHT22;6920;50.080;8.226;2023-04-10T00:12:28;6.20;99.90
13697;DHT22;6920;50.080;8.226;2023-04-10T00:14:57;6.10;99.90
13697;DHT22;6920;50.080;8.226;2023-04-10T00:19:51;6.20;99.90
13697;DHT22;6920;50.080;8.226;2023-04-10T00:22:18;6.20;99.90
13697;DHT22;6920;50.080;8.226;2023-04-10T00:24:45;6.10;99.90
13697;DHT22;6920;50.080;8.226;2023-04-10T00:27:12;6.20;99.90
13697;DHT22;6920;50.080;8.226;2023-04-10T00:29:39;6.30;99.90
13697;DHT22;6920;50.080;8.226;2023-04-10T00:32:08;6.20;99.90
13697;DHT22;6920;50.080;8.226;2023-04-10T00:34:35;6.20;99.90
13697;DHT22;6920;50.080;8.226;2023-04-10T00:37:02;6.20;99.90
13697;DHT22;6920;50.080;8.226;2023-04-10T00:39:29;6.10;99.90
13697;DHT22;6920;50.080;8.226;2023-04-10T00:41:56;6.00;99.90
13697;DHT22;6920;50.080;8.226;2023-04-10T00:46:51;5.90;99.90
13697;DHT22;6920;50.080;8.226;2023-04-10T00:49:20;6.00;99.90
13697;DHT22;6920;50.080;8.226;2023-04-10T00:51:47;5.90;99.90
13697;DHT22;6920;50.080;8.226;2023-04-10T00:54:14;5.90;99.90
13697;DHT22;6920;50.080;8.226;2023-04-10T00:56:42;5.80;99.90
13697;DHT22;6920;50.080;8.226;2023-04-10T00:59:11;5.80;99.90
13697;DHT22;6920;50.080;8.226;2023-04-10T01:01:38;5.80;99.90
13697;DHT22;6920;50.080;8.226;2023-04-10T01:04:06;6.00;99.90
13697;DHT22;6920;50.080;8.226;2023-04-10T01:06:47;5.90;99.90
13697;DHT22;6920;50.080;8.226;2023-04-10T01:09:21;5.90;99.90
13697;DHT22;6920;50.080;8.226;2023-04-10T01:11:55;5.90;99.90
13697;DHT22;6920;50.080;8.226;2023-04-10T01:14:31;5.80;99.90
13697;DHT22;6920;50.080;8.226;2023-04-10T01:17:06;5.80;99.90
13697;DHT22;6920;50.080;8.226;2023-04-10T01:19:52;5.80;99.90
13697;DHT22;6920;50.080;8.226;2023-04-10T01:22:28;5.90;99.90
13697;DHT22;6920;50.080;8.226;2023-04-10T01:25:09;5.90;99.90
13697;DHT22;6920;50.080;8.226;2023-04-10T01:27:45;5.80;99.90
13697;DHT22;6920;50.080;8.226;2023-04-10T01:30:17;5.80;99.90
13697;DHT22;6920;50.080;8.226;2023-04-10T01:32:47;5.70;99.90
13697;DHT22;6920;50.080;8.226;2023-04-10T01:35:16;5.70;99.90
13697;DHT22;6920;50.080;8.226;2023-04-10T01:37:47;5.70;99.90
13697;DHT22;6920;50.080;8.226;2023-04-10T01:40:18;5.80;99.90
13697;DHT22;6920;50.080;8.226;2023-04-10T01:42:49;5.70;99.90
13697;DHT22;6920;50.080;8.226;2023-04-10T01:45:20;5.70;99.90
13697;DHT22;6920;50.080;8.226;2023-04-10T01:47:50;5.70;99.90
13697;DHT22;6920;50.080;8.226;2023-04-10T01:50:19;5.70;99.90
13697;DHT22;6920;50.080;8.226;2023-04-10T01:52:49;5.70;99.90
13697;DHT22;6920;50.080;8.226;2023-04-10T01:55:18;5.80;99.90
13697;DHT22;6920;50.080;8.226;2023-04-10T01:57:46;5.70;99.90
13697;DHT22;6920;50.080;8.226;2023-04-10T02:00:13;5.70;99.90
13697;DHT22;6920;50.080;8.226;2023-04-10T02:02:43;5.60;99.90
13697;DHT22;6920;50.080;8.226;2023-04-10T02:05:10;5.60;99.90
13697;DHT22;6920;50.080;8.226;2023-04-10T02:07:43;5.50;99.90
13697;DHT22;6920;50.080;8.226;2023-04-10T02:10:14;5.50;99.90
13697;DHT22;6920;50.080;8.226;2023-04-10T02:12:45;5.50;99.90
13697;DHT22;6920;50.080;8.226;2023-04-10T02:15:16;5.50;99.90
13697;DHT22;6920;50.080;8.226;2023-04-10T02:17:46;5.40;99.90
13697;DHT22;6920;50.080;8.226;2023-04-10T02:20:15;5.40;99.90
13697;DHT22;6920;50.080;8.226;2023-04-10T02:22:43;5.50;99.90
13697;DHT22;6920;50.080;8.226;2023-04-10T02:25:11;5.50;99.90
13697;DHT22;6920;50.080;8.226;2023-04-10T02:27:38;5.40;99.90
13697;DHT22;6920;50.080;8.226;2023-04-10T02:30:07;5.30;99.90
13697;DHT22;6920;50.080;8.226;2023-04-10T02:32:35;5.30;99.90
13697;DHT22;6920;50.080;8.226;2023-04-10T02:35:04;5.40;99.90
13697;DHT22;6920;50.080;8.226;2023-04-10T02:37:31;5.40;99.90
13697;DHT22;6920;50.080;8.226;2023-04-10T02:39:59;5.40;99.90
13697;DHT22;6920;50.080;8.226;2023-04-10T02:42:26;5.40;99.90
13697;DHT22;6920;50.080;8.226;2023-04-10T02:44:54;5.30;99.90
13697;DHT22;6920;50.080;8.226;2023-04-10T02:47:21;5.40;99.90
13697;DHT22;6920;50.080;8.226;2023-04-10T02:49:48;5.50;99.90
13697;DHT22;6920;50.080;8.226;2023-04-10T02:52:17;5.60;99.90
13697;DHT22;6920;50.080;8.226;2023-04-10T02:54:44;5.60;99.90
13697;DHT22;6920;50.080;8.226;2023-04-10T02:57:11;5.70;99.90
13697;DHT22;6920;50.080;8.226;2023-04-10T02:59:38;5.70;99.90
13697;DHT22;6920;50.080;8.226;2023-04-10T03:02:05;5.70;99.90
13697;DHT22;6920;50.080;8.226;2023-04-10T03:06:59;5.70;99.90
13697;DHT22;6920;50.080;8.226;2023-04-10T03:09:28;5.60;99.90
13697;DHT22;6920;50.080;8.226;2023-04-10T03:11:55;5.60;99.90
13697;DHT22;6920;50.080;8.226;2023-04-10T03:16:49;5.40;99.90
13697;DHT22;6920;50.080;8.226;2023-04-10T03:19:16;5.40;99.90
13697;DHT22;6920;50.080;8.226;2023-04-10T03:21:44;5.30;99.90
13697;DHT22;6920;50.080;8.226;2023-04-10T03:24:12;5.20;99.90
13697;DHT22;6920;50.080;8.226;2023-04-10T03:26:40;4.30;99.90
13697;DHT22;6920;50.080;8.226;2023-04-10T03:29:07;5.10;99.90
13697;DHT22;6920;50.080;8.226;2023-04-10T03:31:34;5.20;99.90
13697;DHT22;6920;50.080;8.226;2023-04-10T03:34:02;5.40;99.90
13697;DHT22;6920;50.080;8.226;2023-04-10T03:36:29;5.50;99.90
13697;DHT22;6920;50.080;8.226;2023-04-10T03:38:56;5.40;99.90
13697;DHT22;6920;50.080;8.226;2023-04-10T03:41:23;5.30;99.90
13697;DHT22;6920;50.080;8.226;2023-04-10T03:43:52;5.30;99.90
13697;DHT22;6920;50.080;8.226;2023-04-10T03:46:19;5.40;99.90
13697;DHT22;6920;50.080;8.226;2023-04-10T03:48:47;5.40;99.90
13697;DHT22;6920;50.080;8.226;2023-04-10T03:51:15;5.40;99.90
13697;DHT22;6920;50.080;8.226;2023-04-10T03:53:42;5.30;99.90
13697;DHT22;6920;50.080;8.226;2023-04-10T03:56:10;5.20;99.90
13697;DHT22;6920;50.080;8.226;2023-04-10T03:58:37;5.20;99.90
13697;DHT22;6920;50.080;8.226;2023-04-10T04:01:06;5.20;99.90
13697;DHT22;6920;50.080;8.226;2023-04-10T04:03:33;5.10;99.90
13697;DHT22;6920;50.080;8.226;2023-04-10T04:06:00;5.20;99.90
13697;DHT22;6920;50.080;8.226;2023-04-10T04:08:27;7.20;99.90
13697;DHT22;6920;50.080;8.226;2023-04-10T04:10:55;5.10;99.90
13697;DHT22;6920;50.080;8.226;2023-04-10T04:13:22;5.10;99.90
13697;DHT22;6920;50.080;8.226;2023-04-10T04:15:49;4.90;99.90
13697;DHT22;6920;50.080;8.226;2023-04-10T04:18:18;5.00;99.90
13697;DHT22;6920;50.080;8.226;2023-04-10T04:20:45;4.90;99.90
13697;DHT22;6920;50.080;8.226;2023-04-10T04:23:12;4.90;99.90
13697;DHT22;6920;50.080;8.226;2023-04-10T04:28:06;4.80;99.90
13697;DHT22;6920;50.080;8.226;2023-04-10T04:30:34;4.90;99.90
13697;DHT22;6920;50.080;8.226;2023-04-10T04:33:01;4.90;99.90
13697;DHT22;6920;50.080;8.226;2023-04-10T04:35:29;4.90;99.90
13697;DHT22;6920;50.080;8.226;2023-04-10T04:37:56;4.80;99.90
13697;DHT22;6920;50.080;8.226;2023-04-10T04:40:23;4.80;99.90
13697;DHT22;6920;50.080;8.226;2023-04-10T04:42:51;4.90;99.90
13697;DHT22;6920;50.080;8.226;2023-04-10T04:45:18;4.90;99.90
13697;DHT22;6920;50.080;8.226;2023-04-10T04:47:46;4.90;99.90
13697;DHT22;6920;50.080;8.226;2023-04-10T04:50:13;4.90;99.90
13697;DHT22;6920;50.080;8.226;2023-04-10T04:52:42;4.90;99.90
13697;DHT22;6920;50.080;8.226;2023-04-10T04:55:09;5.00;99.90
13697;DHT22;6920;50.080;8.226;2023-04-10T05:00:05;5.10;99.90
13697;DHT22;6920;50.080;8.226;2023-04-10T05:02:32;5.00;99.90
13697;DHT22;6920;50.080;8.226;2023-04-10T05:04:59;5.10;99.90
13697;DHT22;6920;50.080;8.226;2023-04-10T05:07:26;5.10;99.90
13697;DHT22;6920;50.080;8.226;2023-04-10T05:09:55;5.20;99.90
13697;DHT22;6920;50.080;8.226;2023-04-10T05:12:22;5.20;99.90
13697;DHT22;6920;50.080;8.226;2023-04-10T05:14:49;5.20;99.90
13697;DHT22;6920;50.080;8.226;2023-04-10T05:17:16;5.20;99.90
13697;DHT22;6920;50.080;8.226;2023-04-10T05:19:43;5.20;99.90
13697;DHT22;6920;50.080;8.226;2023-04-10T05:22:10;5.10;99.90
13697;DHT22;6920;50.080;8.226;2023-04-10T05:24:38;5.10;99.90
13697;DHT22;6920;50.080;8.226;2023-04-10T05:27:06;5.10;99.90
13697;DHT22;6920;50.080;8.226;2023-04-10T05:29:33;5.20;99.90
13697;DHT22;6920;50.080;8.226;2023-04-10T05:32:00;5.20;99.90
13697;DHT22;6920;50.080;8.226;2023-04-10T05:34:27;5.40;99.90
13697;DHT22;6920;50.080;8.226;2023-04-10T05:36:54;5.50;99.90
13697;DHT22;6920;50.080;8.226;2023-04-10T05:39:21;5.50;99.90
13697;DHT22;6920;50.080;8.226;2023-04-10T05:41:48;5.50;99.90
13697;DHT22;6920;50.080;8.226;2023-04-10T05:44:17;5.50;99.90
13697;DHT22;6920;50.080;8.226;2023-04-10T05:46:44;5.50;99.90
13697;DHT22;6920;50.080;8.226;2023-04-10T05:49:11;5.50;99.90
13697;DHT22;6920;50.080;8.226;2023-04-10T05:51:38;5.60;99.90
13697;DHT22;6920;50.080;8.226;2023-04-10T05:54:05;5.70;99.90
13697;DHT22;6920;50.080;8.226;2023-04-10T05:56:32;5.60;99.90
13697;DHT22;6920;50.080;8.226;2023-04-10T05:58:59;5.70;99.90
13697;DHT22;6920;50.080;8.226;2023-04-10T06:01:28;5.80;99.90
13697;DHT22;6920;50.080;8.226;2023-04-10T06:03:55;5.90;99.90
13697;DHT22;6920;50.080;8.226;2023-04-10T06:06:22;6.00;99.90
13697;DHT22;6920;50.080;8.226;2023-04-10T06:08:50;6.00;99.90
13697;DHT22;6920;50.080;8.226;2023-04-10T06:11:17;6.20;99.90
13697;DHT22;6920;50.080;8.226;2023-04-10T06:13:45;6.30;99.90
13697;DHT22;6920;50.080;8.226;2023-04-10T06:16:12;6.40;99.90
13697;DHT22;6920;50.080;8.226;2023-04-10T06:18:42;6.50;99.90
13697;DHT22;6920;50.080;8.226;2023-04-10T06:21:09;6.60;99.90
13697;DHT22;6920;50.080;8.226;2023-04-10T06:23:37;6.70;99.90
13697;DHT22;6920;50.080;8.226;2023-04-10T06:26:05;6.80;99.90
13697;DHT22;6920;50.080;8.226;2023-04-10T06:28:32;6.90;99.90
13697;DHT22;6920;50.080;8.226;2023-04-10T06:30:59;7.10;99.90
13697;DHT22;6920;50.080;8.226;2023-04-10T06:33:28;7.40;99.90
13697;DHT22;6920;50.080;8.226;2023-04-10T06:35:57;7.40;99.90
13697;DHT22;6920;50.080;8.226;2023-04-10T06:38:24;7.40;99.90
13697;DHT22;6920;50.080;8.226;2023-04-10T06:40:51;7.50;99.90
13697;DHT22;6920;50.080;8.226;2023-04-10T06:43:18;7.70;99.90
13697;DHT22;6920;50.080;8.226;2023-04-10T06:45:46;7.80;99.90
13697;DHT22;6920;50.080;8.226;2023-04-10T06:48:13;7.90;99.90
13697;DHT22;6920;50.080;8.226;2023-04-10T06:50:40;8.10;99.90
13697;DHT22;6920;50.080;8.226;2023-04-10T06:53:08;8.30;99.90
13697;DHT22;6920;50.080;8.226;2023-04-10T06:55:35;8.50;99.90
13697;DHT22;6920;50.080;8.226;2023-04-10T06:58:03;8.80;99.90
13697;DHT22;6920;50.080;8.226;2023-04-10T07:00:30;9.00;99.90
13697;DHT22;6920;50.080;8.226;2023-04-10T07:02:57;9.30;99.90
13697;DHT22;6920;50.080;8.226;2023-04-10T07:05:24;9.50;99.90
13697;DHT22;6920;50.080;8.226;2023-04-10T07:07:51;9.60;99.90
13697;DHT22;6920;50.080;8.226;2023-04-10T07:10:20;9.80;99.90
13697;DHT22;6920;50.080;8.226;2023-04-10T07:12:47;9.90;99.90
13697;DHT22;6920;50.080;8.226;2023-04-10T07:15:14;10.00;99.90
13697;DHT22;6920;50.080;8.226;2023-04-10T07:17:41;10.10;99.90
13697;DHT22;6920;50.080;8.226;2023-04-10T07:20:11;10.20;99.90
13697;DHT22;6920;50.080;8.226;2023-04-10T07:22:38;10.30;99.90
13697;DHT22;6920;50.080;8.226;2023-04-10T07:25:06;10.50;99.90
13697;DHT22;6920;50.080;8.226;2023-04-10T07:27:35;10.60;99.90
13697;DHT22;6920;50.080;8.226;2023-04-10T07:30:02;10.80;99.90
13697;DHT22;6920;50.080;8.226;2023-04-10T07:32:30;10.80;99.90
13697;DHT22;6920;50.080;8.226;2023-04-10T07:34:58;10.90;99.90
13697;DHT22;6920;50.080;8.226;2023-04-10T07:37:25;11.20;99.90
13697;DHT22;6920;50.080;8.226;2023-04-10T07:39:53;11.50;99.90
13697;DHT22;6920;50.080;8.226;2023-04-10T07:42:22;11.50;99.90
13697;DHT22;6920;50.080;8.226;2023-04-10T07:44:51;11.60;99.90
13697;DHT22;6920;50.080;8.226;2023-04-10T07:47:18;12.00;99.90
13697;DHT22;6920;50.080;8.226;2023-04-10T07:49:45;12.00;99.90
13697;DHT22;6920;50.080;8.226;2023-04-10T07:52:12;12.30;99.90
13697;DHT22;6920;50.080;8.226;2023-04-10T07:54:39;12.30;99.90
13697;DHT22;6920;50.080;8.226;2023-04-10T07:57:06;12.50;99.90
13697;DHT22;6920;50.080;8.226;2023-04-10T07:59:33;12.70;99.90
13697;DHT22;6920;50.080;8.226;2023-04-10T08:02:02;12.80;99.90
13697;DHT22;6920;50.080;8.226;2023-04-10T08:04:29;12.90;99.90
13697;DHT22;6920;50.080;8.226;2023-04-10T08:06:56;13.00;99.90
13697;DHT22;6920;50.080;8.226;2023-04-10T08:09:23;13.00;99.90
13697;DHT22;6920;50.080;8.226;2023-04-10T08:11:50;12.80;99.90
13697;DHT22;6920;50.080;8.226;2023-04-10T08:14:17;13.30;99.90
13697;DHT22;6920;50.080;8.226;2023-04-10T08:16:44;13.40;99.90
13697;DHT22;6920;50.080;8.226;2023-04-10T08:19:13;13.60;99.90
13697;DHT22;6920;50.080;8.226;2023-04-10T08:21:40;13.40;99.90
13697;DHT22;6920;50.080;8.226;2023-04-10T08:24:07;13.70;99.90
13697;DHT22;6920;50.080;8.226;2023-04-10T08:26:35;13.60;99.90
13697;DHT22;6920;50.080;8.226;2023-04-10T08:29:02;13.80;99.90
13697;DHT22;6920;50.080;8.226;2023-04-10T08:31:29;13.80;99.90
13697;DHT22;6920;50.080;8.226;2023-04-10T08:33:56;14.10;99.90
13697;DHT22;6920;50.080;8.226;2023-04-10T08:36:25;13.90;99.90
13697;DHT22;6920;50.080;8.226;2023-04-10T08:38:52;14.20;99.90
13697;DHT22;6920;50.080;8.226;2023-04-10T08:41:20;14.40;99.90
13697;DHT22;6920;50.080;8.226;2023-04-10T08:43:47;14.50;99.90
13697;DHT22;6920;50.080;8.226;2023-04-10T08:46:14;14.60;99.90
13697;DHT22;6920;50.080;8.226;2023-04-10T08:48:45;14.90;99.90
13697;DHT22;6920;50.080;8.226;2023-04-10T08:51:16;15.20;99.90
13697;DHT22;6920;50.080;8.226;2023-04-10T08:53:49;15.00;99.90
13697;DHT22;6920;50.080;8.226;2023-04-10T08:56:17;14.90;99.90
13697;DHT22;6920;50.080;8.226;2023-04-10T08:58:45;14.90;99.90
13697;DHT22;6920;50.080;8.226;2023-04-10T09:01:12;14.80;99.90
13697;DHT22;6920;50.080;8.226;2023-04-10T09:03:42;15.30;99.90
13697;DHT22;6920;50.080;8.226;2023-04-10T09:06:09;15.40;99.90
13697;DHT22;6920;50.080;8.226;2023-04-10T09:08:38;15.90;99.90
13697;DHT22;6920;50.080;8.226;2023-04-10T09:11:06;15.60;99.90
13697;DHT22;6920;50.080;8.226;2023-04-10T09:13:36;15.00;99.90
13697;DHT22;6920;50.080;8.226;2023-04-10T09:16:05;15.10;99.90
13697;DHT22;6920;50.080;8.226;2023-04-10T09:18:46;15.20;99.90
13697;DHT22;6920;50.080;8.226;2023-04-10T09:21:15;15.20;99.90
13697;DHT22;6920;50.080;8.226;2023-04-10T09:23:45;15.20;99.90
13697;DHT22;6920;50.080;8.226;2023-04-10T09:26:25;15.20;99.90
13697;DHT22;6920;50.080;8.226;2023-04-10T09:29:00;15.90;99.90
13697;DHT22;6920;50.080;8.226;2023-04-10T09:31:32;16.20;99.90
13697;DHT22;6920;50.080;8.226;2023-04-10T09:34:12;16.00;99.90
13697;DHT22;6920;50.080;8.226;2023-04-10T09:36:39;15.30;99.90
13697;DHT22;6920;50.080;8.226;2023-04-10T09:39:08;15.50;99.90
13697;DHT22;6920;50.080;8.226;2023-04-10T09:41:48;15.60;99.90
13697;DHT22;6920;50.080;8.226;2023-04-10T09:44:18;15.40;99.90
13697;DHT22;6920;50.080;8.226;2023-04-10T09:46:45;15.40;99.90
13697;DHT22;6920;50.080;8.226;2023-04-10T09:49:14;15.30;99.90
13697;DHT22;6920;50.080;8.226;2023-04-10T09:51:41;15.50;99.90
13697;DHT22;6920;50.080;8.226;2023-04-10T09:54:09;15.30;99.90
13697;DHT22;6920;50.080;8.226;2023-04-10T09:56:38;15.50;99.90
13697;DHT22;6920;50.080;8.226;2023-04-10T09:59:07;15.70;99.90
13697;DHT22;6920;50.080;8.226;2023-04-10T10:01:36;15.70;99.90
13697;DHT22;6920;50.080;8.226;2023-04-10T10:04:07;16.20;99.90
13697;DHT22;6920;50.080;8.226;2023-04-10T10:06:37;16.70;99.90
13697;DHT22;6920;50.080;8.226;2023-04-10T10:09:06;16.60;99.70
13697;DHT22;6920;50.080;8.226;2023-04-10T10:11:34;16.40;99.80
13697;DHT22;6920;50.080;8.226;2023-04-10T10:14:03;16.60;99.30
13697;DHT22;6920;50.080;8.226;2023-04-10T10:16:38;16.70;99.20
13697;DHT22;6920;50.080;8.226;2023-04-10T10:19:14;17.00;99.30
13697;DHT22;6920;50.080;8.226;2023-04-10T10:21:43;16.90;99.00
13697;DHT22;6920;50.080;8.226;2023-04-10T10:24:11;16.90;99.10
13697;DHT22;6920;50.080;8.226;2023-04-10T10:26:39;16.80;98.70
13697;DHT22;6920;50.080;8.226;2023-04-10T10:29:08;17.20;98.30
13697;DHT22;6920;50.080;8.226;2023-04-10T10:31:39;17.20;98.50
13697;DHT22;6920;50.080;8.226;2023-04-10T10:34:07;17.10;98.40
13697;DHT22;6920;50.080;8.226;2023-04-10T10:36:36;17.30;98.50
13697;DHT22;6920;50.080;8.226;2023-04-10T10:39:23;17.70;98.40
13697;DHT22;6920;50.080;8.226;2023-04-10T10:41:58;18.30;98.00
13697;DHT22;6920;50.080;8.226;2023-04-10T10:44:35;18.20;97.10
13697;DHT22;6920;50.080;8.226;2023-04-10T10:47:13;18.50;96.30
13697;DHT22;6920;50.080;8.226;2023-04-10T10:49:52;18.00;95.70
13697;DHT22;6920;50.080;8.226;2023-04-10T10:52:40;18.00;95.40
13697;DHT22;6920;50.080;8.226;2023-04-10T10:55:32;18.30;95.20
13697;DHT22;6920;50.080;8.226;2023-04-10T10:58:04;18.40;95.10
13697;DHT22;6920;50.080;8.226;2023-04-10T11:01:06;18.50;95.00
13697;DHT22;6920;50.080;8.226;2023-04-10T11:03:35;18.60;94.50
13697;DHT22;6920;50.080;8.226;2023-04-10T11:06:04;18.20;94.90
13697;DHT22;6920;50.080;8.226;2023-04-10T11:08:45;18.20;95.00
13697;DHT22;6920;50.080;8.226;2023-04-10T11:11:16;18.30;95.00
13697;DHT22;6920;50.080;8.226;2023-04-10T11:16:47;18.40;94.50
13697;DHT22;6920;50.080;8.226;2023-04-10T11:19:15;18.60;94.40
13697;DHT22;6920;50.080;8.226;2023-04-10T11:24:57;18.50;94.00
13697;DHT22;6920;50.080;8.226;2023-04-10T11:27:45;18.40;93.40
13697;DHT22;6920;50.080;8.226;2023-04-10T11:30:30;18.40;93.10
13697;DHT22;6920;50.080;8.226;2023-04-10T11:32:57;18.40;93.00
13697;DHT22;6920;50.080;8.226;2023-04-10T11:35:26;18.30;93.00
13697;DHT22;6920;50.080;8.226;2023-04-10T11:38:13;18.40;92.90
13697;DHT22;6920;50.080;8.226;2023-04-10T11:41:00;18.60;93.40
13697;DHT22;6920;50.080;8.226;2023-04-10T11:43:29;18.30;93.20
13697;DHT22;6920;50.080;8.226;2023-04-10T11:46:04;18.20;93.60
13697;DHT22;6920;50.080;8.226;2023-04-10T11:48:33;18.30;93.20
13697;DHT22;6920;50.080;8.226;2023-04-10T11:51:10;18.60;92.80
13697;DHT22;6920;50.080;8.226;2023-04-10T11:53:38;18.60;91.50
13697;DHT22;6920;50.080;8.226;2023-04-10T11:56:14;18.20;91.70
13697;DHT22;6920;50.080;8.226;2023-04-10T11:58:41;18.30;92.00
13697;DHT22;6920;50.080;8.226;2023-04-10T12:01:09;18.90;92.00
13697;DHT22;6920;50.080;8.226;2023-04-10T12:03:40;19.10;90.80
13697;DHT22;6920;50.080;8.226;2023-04-10T12:06:10;18.90;90.40
13697;DHT22;6920;50.080;8.226;2023-04-10T12:08:39;18.70;90.10
13697;DHT22;6920;50.080;8.226;2023-04-10T12:11:07;18.70;90.50
13697;DHT22;6920;50.080;8.226;2023-04-10T12:13:35;19.10;90.70
13697;DHT22;6920;50.080;8.226;2023-04-10T12:16:04;19.00;89.70
13697;DHT22;6920;50.080;8.226;2023-04-10T12:18:32;18.80;89.30
13697;DHT22;6920;50.080;8.226;2023-04-10T12:21:00;18.70;87.50
13697;DHT22;6920;50.080;8.226;2023-04-10T12:23:29;18.50;86.70
13697;DHT22;6920;50.080;8.226;2023-04-10T12:26:13;18.50;88.30
13697;DHT22;6920;50.080;8.226;2023-04-10T12:28:47;18.80;88.60
13697;DHT22;6920;50.080;8.226;2023-04-10T12:31:15;18.60;86.80
13697;DHT22;6920;50.080;8.226;2023-04-10T12:33:43;18.40;87.40
13697;DHT22;6920;50.080;8.226;2023-04-10T12:36:19;18.20;88.10
13697;DHT22;6920;50.080;8.226;2023-04-10T12:38:49;18.60;88.50
13697;DHT22;6920;50.080;8.226;2023-04-10T12:41:21;18.70;88.20
13697;DHT22;6920;50.080;8.226;2023-04-10T12:43:50;18.70;88.20
13697;DHT22;6920;50.080;8.226;2023-04-10T12:46:25;18.80;87.40
13697;DHT22;6920;50.080;8.226;2023-04-10T12:48:53;18.60;86.70
13697;DHT22;6920;50.080;8.226;2023-04-10T12:51:44;18.60;87.60
13697;DHT22;6920;50.080;8.226;2023-04-10T12:54:26;19.10;87.30
13697;DHT22;6920;50.080;8.226;2023-04-10T12:56:53;19.10;86.10
13697;DHT22;6920;50.080;8.226;2023-04-10T12:59:22;18.90;86.70
13697;DHT22;6920;50.080;8.226;2023-04-10T13:01:49;18.80;88.50
13697;DHT22;6920;50.080;8.226;2023-04-10T13:04:17;18.90;88.10
13697;DHT22;6920;50.080;8.226;2023-04-10T13:06:45;19.00;87.80
13697;DHT22;6920;50.080;8.226;2023-04-10T13:09:14;18.90;88.30
13697;DHT22;6920;50.080;8.226;2023-04-10T13:11:42;18.70;87.90
13697;DHT22;6920;50.080;8.226;2023-04-10T13:14:09;18.50;88.70
13697;DHT22;6920;50.080;8.226;2023-04-10T13:16:37;18.50;88.20
13697;DHT22;6920;50.080;8.226;2023-04-10T13:19:04;18.20;88.90
13697;DHT22;6920;50.080;8.226;2023-04-10T13:21:31;18.20;88.80
13697;DHT22;6920;50.080;8.226;2023-04-10T13:23:59;18.30;88.50
13697;DHT22;6920;50.080;8.226;2023-04-10T13:26:27;18.40;87.90
13697;DHT22;6920;50.080;8.226;2023-04-10T13:28:54;18.60;87.20
13697;DHT22;6920;50.080;8.226;2023-04-10T13:31:22;18.60;87.10
13697;DHT22;6920;50.080;8.226;2023-04-10T13:33:49;18.60;86.90
13697;DHT22;6920;50.080;8.226;2023-04-10T13:36:16;18.60;87.00
13697;DHT22;6920;50.080;8.226;2023-04-10T13:38:43;18.80;87.70
13697;DHT22;6920;50.080;8.226;2023-04-10T13:41:11;18.80;87.20
13697;DHT22;6920;50.080;8.226;2023-04-10T13:43:39;19.00;86.60
13697;DHT22;6920;50.080;8.226;2023-04-10T13:46:06;19.20;85.90
13697;DHT22;6920;50.080;8.226;2023-04-10T13:48:33;19.10;85.80
13697;DHT22;6920;50.080;8.226;2023-04-10T13:51:06;19.10;85.20
13697;DHT22;6920;50.080;8.226;2023-04-10T13:53:33;18.90;85.60
13697;DHT22;6920;50.080;8.226;2023-04-10T13:56:00;18.90;86.10
13697;DHT22;6920;50.080;8.226;2023-04-10T13:58:27;18.70;86.00
13697;DHT22;6920;50.080;8.226;2023-04-10T14:00:57;18.80;85.10
13697;DHT22;6920;50.080;8.226;2023-04-10T14:03:25;18.90;85.20
13697;DHT22;6920;50.080;8.226;2023-04-10T14:05:52;19.30;86.40
13697;DHT22;6920;50.080;8.226;2023-04-10T14:08:20;19.30;85.10
13697;DHT22;6920;50.080;8.226;2023-04-10T14:10:47;19.40;84.80
13697;DHT22;6920;50.080;8.226;2023-04-10T14:13:15;19.50;83.90
13697;DHT22;6920;50.080;8.226;2023-04-10T14:15:42;19.40;84.20
13697;DHT22;6920;50.080;8.226;2023-04-10T14:18:12;19.40;84.20
13697;DHT22;6920;50.080;8.226;2023-04-10T14:20:42;19.20;84.90
13697;DHT22;6920;50.080;8.226;2023-04-10T14:23:09;19.10;85.30
13697;DHT22;6920;50.080;8.226;2023-04-10T14:25:42;19.20;85.30
13697;DHT22;6920;50.080;8.226;2023-04-10T14:28:09;18.90;85.10
13697;DHT22;6920;50.080;8.226;2023-04-10T14:30:42;19.00;85.20
13697;DHT22;6920;50.080;8.226;2023-04-10T14:33:10;18.80;85.60
13697;DHT22;6920;50.080;8.226;2023-04-10T14:35:39;18.80;84.80
13697;DHT22;6920;50.080;8.226;2023-04-10T14:38:06;18.70;84.50
13697;DHT22;6920;50.080;8.226;2023-04-10T14:40:34;18.80;82.70
13697;DHT22;6920;50.080;8.226;2023-04-10T14:43:01;18.70;83.00
13697;DHT22;6920;50.080;8.226;2023-04-10T14:45:29;18.60;81.90
13697;DHT22;6920;50.080;8.226;2023-04-10T14:47:57;18.50;82.60
13697;DHT22;6920;50.080;8.226;2023-04-10T14:50:25;18.50;82.80
13697;DHT22;6920;50.080;8.226;2023-04-10T14:52:55;18.50;83.00
13697;DHT22;6920;50.080;8.226;2023-04-10T14:55:24;18.50;82.40
13697;DHT22;6920;50.080;8.226;2023-04-10T14:57:51;18.50;83.50
13697;DHT22;6920;50.080;8.226;2023-04-10T15:00:19;18.40;83.90
13697;DHT22;6920;50.080;8.226;2023-04-10T15:02:46;18.50;83.70
13697;DHT22;6920;50.080;8.226;2023-04-10T15:05:13;18.50;84.40
13697;DHT22;6920;50.080;8.226;2023-04-10T15:07:41;18.60;84.60
13697;DHT22;6920;50.080;8.226;2023-04-10T15:10:09;18.90;85.00
13697;DHT22;6920;50.080;8.226;2023-04-10T15:12:36;18.80;83.90
13697;DHT22;6920;50.080;8.226;2023-04-10T15:15:04;18.90;84.10
13697;DHT22;6920;50.080;8.226;2023-04-10T15:17:32;18.90;84.50
13697;DHT22;6920;50.080;8.226;2023-04-10T15:20:00;18.90;84.20
13697;DHT22;6920;50.080;8.226;2023-04-10T15:22:29;18.60;84.70
13697;DHT22;6920;50.080;8.226;2023-04-10T15:24:56;18.50;84.20
13697;DHT22;6920;50.080;8.226;2023-04-10T15:27:25;18.50;84.70
13697;DHT22;6920;50.080;8.226;2023-04-10T15:29:52;18.60;84.60
13697;DHT22;6920;50.080;8.226;2023-04-10T15:32:19;18.50;85.20
13697;DHT22;6920;50.080;8.226;2023-04-10T15:34:47;18.60;85.80
13697;DHT22;6920;50.080;8.226;2023-04-10T15:37:15;18.60;85.50
13697;DHT22;6920;50.080;8.226;2023-04-10T15:39:42;18.40;86.30
13697;DHT22;6920;50.080;8.226;2023-04-10T15:42:09;18.30;86.40
13697;DHT22;6920;50.080;8.226;2023-04-10T15:44:37;18.20;86.50
13697;DHT22;6920;50.080;8.226;2023-04-10T15:47:04;18.10;86.40
13697;DHT22;6920;50.080;8.226;2023-04-10T15:49:32;18.20;86.80
13697;DHT22;6920;50.080;8.226;2023-04-10T15:52:01;18.10;85.90
13697;DHT22;6920;50.080;8.226;2023-04-10T15:54:28;18.10;86.70
13697;DHT22;6920;50.080;8.226;2023-04-10T15:56:55;18.10;87.00
13697;DHT22;6920;50.080;8.226;2023-04-10T15:59:23;18.10;87.20
13697;DHT22;6920;50.080;8.226;2023-04-10T16:01:52;18.00;86.80
13697;DHT22;6920;50.080;8.226;2023-04-10T16:04:22;18.00;87.00
13697;DHT22;6920;50.080;8.226;2023-04-10T16:06:49;17.90;87.00
13697;DHT22;6920;50.080;8.226;2023-04-10T16:09:16;17.80;86.80
13697;DHT22;6920;50.080;8.226;2023-04-10T16:11:44;17.80;87.30
13697;DHT22;6920;50.080;8.226;2023-04-10T16:14:11;17.80;87.50
13697;DHT22;6920;50.080;8.226;2023-04-10T16:16:39;17.80;88.00
13697;DHT22;6920;50.080;8.226;2023-04-10T16:19:07;17.80;87.50
13697;DHT22;6920;50.080;8.226;2023-04-10T16:21:35;17.80;87.30
13697;DHT22;6920;50.080;8.226;2023-04-10T16:24:02;17.80;87.40
13697;DHT22;6920;50.080;8.226;2023-04-10T16:26:30;17.70;86.60